createdAt,value
2018-12-29T00:00:43.462Z,0.00
2018-12-29T00:01:43.441Z,0.00
2018-12-29T00:02:43.455Z,0.00
2018-12-29T00:03:43.441Z,0.00
2018-12-29T00:04:43.440Z,0.00
2018-12-29T00:05:43.413Z,0.00
2018-12-29T00:06:43.418Z,0.00
2018-12-29T00:07:43.388Z,0.00
2018-12-29T00:08:43.397Z,0.00
2018-12-29T00:09:43.380Z,0.00
2018-12-29T00:10:43.361Z,0.00
2018-12-29T00:11:43.344Z,0.00
2018-12-29T00:12:43.334Z,0.00
2018-12-29T00:13:43.317Z,0.00
2018-12-29T00:14:43.342Z,0.00
2018-12-29T00:15:43.332Z,0.00
2018-12-29T00:16:43.286Z,0.00
2018-12-29T00:17:43.287Z,0.00
2018-12-29T00:18:43.264Z,0.00
2018-12-29T00:19:43.252Z,0.00
2018-12-29T00:20:43.269Z,0.00
2018-12-29T00:21:43.283Z,0.00
2018-12-29T00:22:43.251Z,0.00
2018-12-29T00:23:43.214Z,0.00
2018-12-29T00:24:43.230Z,0.00
2018-12-29T00:25:43.238Z,0.00
2018-12-29T00:26:43.204Z,0.00
2018-12-29T00:27:43.174Z,0.00
2018-12-29T00:28:43.169Z,0.00
2018-12-29T00:29:43.160Z,0.00
2018-12-29T00:30:43.137Z,0.00
2018-12-29T00:31:43.153Z,0.00
2018-12-29T00:32:43.123Z,0.00
2018-12-29T00:33:43.115Z,0.00
2018-12-29T00:34:43.098Z,0.00
2018-12-29T00:35:43.082Z,0.00
2018-12-29T00:36:43.083Z,0.00
2018-12-29T00:37:43.098Z,0.00
2018-12-29T00:38:43.061Z,0.00
2018-12-29T00:39:43.051Z,0.00
2018-12-29T00:40:43.036Z,0.00
2018-12-29T00:41:43.036Z,0.00
2018-12-29T00:42:43.048Z,0.00
2018-12-29T00:43:43.012Z,0.00
2018-12-29T00:44:42.997Z,0.00
2018-12-29T00:45:42.982Z,0.00
2018-12-29T00:46:42.984Z,0.00
2018-12-29T00:47:42.957Z,0.00
2018-12-29T00:48:42.981Z,0.00
2018-12-29T00:49:42.943Z,0.00
2018-12-29T00:50:42.934Z,0.00
2018-12-29T00:51:42.938Z,0.00
2018-12-29T00:52:42.905Z,0.00
2018-12-29T00:53:42.899Z,0.00
2018-12-29T00:54:42.909Z,0.00
2018-12-29T00:55:42.878Z,0.00
2018-12-29T00:56:42.880Z,0.00
2018-12-29T00:57:42.864Z,0.00
2018-12-29T00:58:42.840Z,0.00
2018-12-29T00:59:42.858Z,0.00
2018-12-29T01:00:42.825Z,0.00
2018-12-29T01:01:42.819Z,0.00
2018-12-29T01:02:42.803Z,0.00
2018-12-29T01:03:42.800Z,0.00
2018-12-29T01:04:42.813Z,0.00
2018-12-29T01:05:42.776Z,0.00
2018-12-29T01:06:42.769Z,0.00
2018-12-29T01:07:42.748Z,0.00
2018-12-29T01:08:42.751Z,0.00
2018-12-29T01:09:42.725Z,0.00
2018-12-29T01:10:42.762Z,0.00
2018-12-29T01:11:42.717Z,0.00
2018-12-29T01:12:42.702Z,0.00
2018-12-29T01:13:42.690Z,0.00
2018-12-29T01:14:42.679Z,0.00
2018-12-29T01:15:42.673Z,0.00
2018-12-29T01:16:42.690Z,0.00
2018-12-29T01:17:42.650Z,0.00
2018-12-29T01:18:42.640Z,0.00
2018-12-29T01:19:42.621Z,0.00
2018-12-29T01:20:42.610Z,0.00
2018-12-29T01:21:42.600Z,0.00
2018-12-29T01:22:42.608Z,0.00
2018-12-29T01:23:42.580Z,0.00
2018-12-29T01:24:42.566Z,0.00
2018-12-29T01:25:42.561Z,0.00
2018-12-29T01:26:42.547Z,0.00
2018-12-29T01:27:42.561Z,0.00
2018-12-29T01:28:42.526Z,0.00
2018-12-29T01:29:42.511Z,0.00
2018-12-29T01:30:42.508Z,0.00
2018-12-29T01:31:42.499Z,0.00
2018-12-29T01:32:42.490Z,0.00
2018-12-29T01:33:42.505Z,0.00
2018-12-29T01:34:42.462Z,0.00
2018-12-29T01:35:42.456Z,0.00
2018-12-29T01:36:42.445Z,0.00
2018-12-29T01:37:42.434Z,0.00
2018-12-29T01:38:42.416Z,0.00
2018-12-29T01:39:42.434Z,0.00
2018-12-29T01:40:42.410Z,0.00
2018-12-29T01:41:42.402Z,0.00
2018-12-29T01:42:42.387Z,0.00
2018-12-29T01:43:42.376Z,0.00
2018-12-29T01:44:42.393Z,0.00
2018-12-29T01:45:42.344Z,0.00
2018-12-29T01:46:42.340Z,0.00
2018-12-29T01:47:42.325Z,0.00
2018-12-29T01:48:42.353Z,0.00
2018-12-29T01:49:42.395Z,0.00
2018-12-29T01:50:42.334Z,0.00
2018-12-29T01:51:42.372Z,0.00
2018-12-29T01:52:42.332Z,0.00
2018-12-29T01:53:42.274Z,0.00
2018-12-29T01:54:42.246Z,0.00
2018-12-29T01:55:42.280Z,0.00
2018-12-29T01:56:42.256Z,0.00
2018-12-29T01:57:42.222Z,0.00
2018-12-29T01:58:42.210Z,0.00
2018-12-29T01:59:42.196Z,0.00
2018-12-29T02:00:42.199Z,0.00
2018-12-29T02:01:42.220Z,0.00
2018-12-29T02:02:42.339Z,0.00
2018-12-29T02:03:42.164Z,0.00
2018-12-29T02:04:42.321Z,0.00
2018-12-29T02:05:42.132Z,0.00
2018-12-29T02:06:42.125Z,0.00
2018-12-29T02:07:42.173Z,0.00
2018-12-29T02:08:42.117Z,0.00
2018-12-29T02:09:42.098Z,0.00
2018-12-29T02:10:42.099Z,0.00
2018-12-29T02:11:42.094Z,0.00
2018-12-29T02:12:42.065Z,0.00
2018-12-29T02:13:42.085Z,0.00
2018-12-29T02:14:42.107Z,0.00
2018-12-29T02:15:42.195Z,0.00
2018-12-29T02:16:42.020Z,0.00
2018-12-29T02:17:42.015Z,0.00
2018-12-29T02:18:42.006Z,0.00
2018-12-29T02:19:42.013Z,0.00
2018-12-29T02:20:41.975Z,0.00
2018-12-29T02:21:41.985Z,0.00
2018-12-29T02:22:41.969Z,0.00
2018-12-29T02:23:41.949Z,0.00
2018-12-29T02:24:41.966Z,0.00
2018-12-29T02:25:41.932Z,0.00
2018-12-29T02:26:41.920Z,0.00
2018-12-29T02:27:41.936Z,0.00
2018-12-29T02:28:41.929Z,0.00
2018-12-29T02:29:41.920Z,0.00
2018-12-29T02:30:41.906Z,0.00
2018-12-29T02:31:41.871Z,0.00
2018-12-29T02:32:42.051Z,0.00
2018-12-29T02:33:41.848Z,0.00
2018-12-29T02:34:41.825Z,0.00
2018-12-29T02:35:41.818Z,0.00
2018-12-29T02:36:41.830Z,0.00
2018-12-29T02:37:41.806Z,0.00
2018-12-29T02:38:41.787Z,0.00
2018-12-29T02:39:41.787Z,0.00
2018-12-29T02:40:41.771Z,0.00
2018-12-29T02:41:41.789Z,0.00
2018-12-29T02:42:41.746Z,0.00
2018-12-29T02:43:41.734Z,0.00
2018-12-29T02:44:41.728Z,0.00
2018-12-29T02:45:41.713Z,0.00
2018-12-29T02:46:41.713Z,0.00
2018-12-29T02:47:41.734Z,0.00
2018-12-29T02:48:41.677Z,0.00
2018-12-29T02:49:41.671Z,0.00
2018-12-29T02:50:41.658Z,0.00
2018-12-29T02:51:41.647Z,0.00
2018-12-29T02:52:41.645Z,0.00
2018-12-29T02:53:41.669Z,0.00
2018-12-29T02:54:41.622Z,0.00
2018-12-29T02:55:41.614Z,0.00
2018-12-29T02:56:41.616Z,0.00
2018-12-29T02:57:41.596Z,0.00
2018-12-29T02:58:41.602Z,0.00
2018-12-29T02:59:41.568Z,0.00
2018-12-29T03:00:41.567Z,0.00
2018-12-29T03:01:41.549Z,0.00
2018-12-29T03:02:41.535Z,0.00
2018-12-29T03:03:41.527Z,0.00
2018-12-29T03:04:41.545Z,0.00
2018-12-29T03:05:41.506Z,0.00
2018-12-29T03:06:41.488Z,0.00
2018-12-29T03:07:41.484Z,0.00
2018-12-29T03:08:41.474Z,0.00
2018-12-29T03:09:41.466Z,0.00
2018-12-29T03:10:41.467Z,0.00
2018-12-29T03:11:41.456Z,0.00
2018-12-29T03:12:41.426Z,0.00
2018-12-29T03:13:41.413Z,0.00
2018-12-29T03:14:41.413Z,0.00
2018-12-29T03:15:42.041Z,0.00
2018-12-29T03:16:41.390Z,0.00
2018-12-29T03:17:41.388Z,0.00
2018-12-29T03:18:41.366Z,0.00
2018-12-29T03:19:41.359Z,0.00
2018-12-29T03:20:41.351Z,0.00
2018-12-29T03:21:41.361Z,0.00
2018-12-29T03:22:41.327Z,0.00
2018-12-29T03:23:41.336Z,0.00
2018-12-29T03:24:41.303Z,0.00
2018-12-29T03:25:41.290Z,0.00
2018-12-29T03:26:41.286Z,0.00
2018-12-29T03:27:41.297Z,0.00
2018-12-29T03:28:41.269Z,0.00
2018-12-29T03:29:41.271Z,0.00
2018-12-29T03:30:41.241Z,0.00
2018-12-29T03:31:41.233Z,0.00
2018-12-29T03:32:41.248Z,0.00
2018-12-29T03:33:41.208Z,0.00
2018-12-29T03:34:41.204Z,0.00
2018-12-29T03:35:41.216Z,0.00
2018-12-29T03:36:41.184Z,0.00
2018-12-29T03:37:41.164Z,0.00
2018-12-29T03:38:41.193Z,0.00
2018-12-29T03:39:41.143Z,0.00
2018-12-29T03:40:41.142Z,0.00
2018-12-29T03:41:41.126Z,0.00
2018-12-29T03:42:41.115Z,0.00
2018-12-29T03:43:41.104Z,0.00
2018-12-29T03:44:41.113Z,0.00
2018-12-29T03:45:48.892Z,0.00
2018-12-29T03:46:42.069Z,0.00
2018-12-29T03:47:41.084Z,0.00
2018-12-29T03:48:41.077Z,0.00
2018-12-29T03:49:41.068Z,0.00
2018-12-29T03:50:41.026Z,0.00
2018-12-29T03:51:41.022Z,0.00
2018-12-29T03:52:41.020Z,0.00
2018-12-29T03:53:40.994Z,0.00
2018-12-29T03:54:40.984Z,0.00
2018-12-29T03:55:41.041Z,0.00
2018-12-29T03:56:40.972Z,0.00
2018-12-29T03:57:40.954Z,0.00
2018-12-29T03:58:40.945Z,0.00
2018-12-29T03:59:40.930Z,0.00
2018-12-29T04:00:40.920Z,0.00
2018-12-29T04:01:40.949Z,0.00
2018-12-29T04:02:40.904Z,0.00
2018-12-29T04:03:40.901Z,0.00
2018-12-29T04:04:40.893Z,0.00
2018-12-29T04:05:40.901Z,0.00
2018-12-29T04:06:40.894Z,0.00
2018-12-29T04:07:40.852Z,0.00
2018-12-29T04:08:40.836Z,0.00
2018-12-29T04:09:40.836Z,0.00
2018-12-29T04:10:40.817Z,0.00
2018-12-29T04:11:40.823Z,0.00
2018-12-29T04:12:40.878Z,0.00
2018-12-29T04:13:40.784Z,0.00
2018-12-29T04:14:40.777Z,0.00
2018-12-29T04:15:40.775Z,0.00
2018-12-29T04:16:40.758Z,0.00
2018-12-29T04:17:40.752Z,0.00
2018-12-29T04:18:40.789Z,0.00
2018-12-29T04:19:40.736Z,0.00
2018-12-29T04:20:40.711Z,0.00
2018-12-29T04:21:40.717Z,0.00
2018-12-29T04:22:40.698Z,0.00
2018-12-29T04:23:40.715Z,0.00
2018-12-29T04:24:40.664Z,0.00
2018-12-29T04:25:40.659Z,0.00
2018-12-29T04:26:40.650Z,0.00
2018-12-29T04:27:40.647Z,0.00
2018-12-29T04:28:40.645Z,0.00
2018-12-29T04:29:40.656Z,0.00
2018-12-29T04:30:40.616Z,0.00
2018-12-29T04:31:40.599Z,0.00
2018-12-29T04:32:40.587Z,0.00
2018-12-29T04:33:40.578Z,0.00
2018-12-29T04:34:40.570Z,0.00
2018-12-29T04:35:40.621Z,0.00
2018-12-29T04:36:40.546Z,0.00
2018-12-29T04:37:40.590Z,0.00
2018-12-29T04:38:40.544Z,0.00
2018-12-29T04:39:40.682Z,0.00
2018-12-29T04:40:40.542Z,0.00
2018-12-29T04:41:40.495Z,0.00
2018-12-29T04:42:40.489Z,0.00
2018-12-29T04:43:40.468Z,0.00
2018-12-29T04:44:40.467Z,0.00
2018-12-29T04:45:40.453Z,0.00
2018-12-29T04:46:40.475Z,0.00
2018-12-29T04:47:40.441Z,0.00
2018-12-29T04:48:40.420Z,0.00
2018-12-29T04:49:40.416Z,0.00
2018-12-29T04:50:40.397Z,0.00
2018-12-29T04:51:40.384Z,0.00
2018-12-29T04:52:40.406Z,0.00
2018-12-29T04:53:40.373Z,0.00
2018-12-29T04:54:40.352Z,0.00
2018-12-29T04:55:40.348Z,0.00
2018-12-29T04:56:40.338Z,0.00
2018-12-29T04:57:40.336Z,0.00
2018-12-29T04:58:40.346Z,0.00
2018-12-29T04:59:40.308Z,0.00
2018-12-29T05:00:40.292Z,0.00
2018-12-29T05:01:40.278Z,0.00
2018-12-29T05:02:40.278Z,0.00
2018-12-29T05:03:40.466Z,0.00
2018-12-29T05:04:40.262Z,0.00
2018-12-29T05:05:40.241Z,0.00
2018-12-29T05:06:40.243Z,0.00
2018-12-29T05:07:40.224Z,0.00
2018-12-29T05:08:40.204Z,0.00
2018-12-29T05:09:40.236Z,0.00
2018-12-29T05:10:40.189Z,0.00
2018-12-29T05:11:40.181Z,0.00
2018-12-29T05:12:40.178Z,0.00
2018-12-29T05:13:40.165Z,0.00
2018-12-29T05:14:40.180Z,0.00
2018-12-29T05:15:40.138Z,0.00
2018-12-29T05:16:40.131Z,0.00
2018-12-29T05:17:40.114Z,0.00
2018-12-29T05:18:40.113Z,0.00
2018-12-29T05:19:40.150Z,0.00
2018-12-29T05:20:40.104Z,0.00
2018-12-29T05:21:40.076Z,0.00
2018-12-29T05:22:40.062Z,0.00
2018-12-29T05:23:40.053Z,0.00
2018-12-29T05:24:40.051Z,0.00
2018-12-29T05:25:40.034Z,0.00
2018-12-29T05:26:40.035Z,0.00
2018-12-29T05:27:40.007Z,0.00
2018-12-29T05:28:39.991Z,0.00
2018-12-29T05:29:39.994Z,0.00
2018-12-29T05:30:39.986Z,0.00
2018-12-29T05:31:40.003Z,0.00
2018-12-29T05:32:39.959Z,0.00
2018-12-29T05:33:39.947Z,0.00
2018-12-29T05:34:39.937Z,0.00
2018-12-29T05:35:39.919Z,0.00
2018-12-29T05:36:39.925Z,0.00
2018-12-29T05:37:39.945Z,0.00
2018-12-29T05:38:39.897Z,0.00
2018-12-29T05:39:39.886Z,0.00
2018-12-29T05:40:39.886Z,0.00
2018-12-29T05:41:39.875Z,0.00
2018-12-29T05:42:39.859Z,0.00
2018-12-29T05:43:39.867Z,0.00
2018-12-29T05:44:39.833Z,0.00
2018-12-29T05:45:39.815Z,0.00
2018-12-29T05:46:39.807Z,0.00
2018-12-29T05:47:39.795Z,0.00
2018-12-29T05:48:39.811Z,0.00
2018-12-29T05:49:39.804Z,0.00
2018-12-29T05:50:39.773Z,0.00
2018-12-29T05:51:39.761Z,0.00
2018-12-29T05:52:39.769Z,0.00
2018-12-29T05:53:39.738Z,0.00
2018-12-29T05:54:39.751Z,0.00
2018-12-29T05:55:39.709Z,0.00
2018-12-29T05:56:39.712Z,0.00
2018-12-29T05:57:39.699Z,0.00
2018-12-29T05:58:39.693Z,0.00
2018-12-29T05:59:39.678Z,0.00
2018-12-29T06:00:39.686Z,0.00
2018-12-29T06:01:39.649Z,0.00
2018-12-29T06:02:39.656Z,0.00
2018-12-29T06:03:39.634Z,0.00
2018-12-29T06:04:39.638Z,0.00
2018-12-29T06:05:39.646Z,0.00
2018-12-29T06:06:39.602Z,0.00
2018-12-29T06:07:39.592Z,0.00
2018-12-29T06:08:39.597Z,0.00
2018-12-29T06:09:39.576Z,0.00
2018-12-29T06:10:39.567Z,0.00
2018-12-29T06:11:39.576Z,0.00
2018-12-29T06:12:39.574Z,0.00
2018-12-29T06:13:39.533Z,0.00
2018-12-29T06:14:39.528Z,0.00
2018-12-29T06:15:39.518Z,0.00
2018-12-29T06:16:39.503Z,0.00
2018-12-29T06:17:39.529Z,0.00
2018-12-29T06:18:39.472Z,0.00
2018-12-29T06:19:39.468Z,0.00
2018-12-29T06:20:39.450Z,0.00
2018-12-29T06:21:39.446Z,0.00
2018-12-29T06:22:39.493Z,0.00
2018-12-29T06:23:39.444Z,0.00
2018-12-29T06:24:39.415Z,0.00
2018-12-29T06:25:39.410Z,0.00
2018-12-29T06:26:39.396Z,0.00
2018-12-29T06:27:39.403Z,0.00
2018-12-29T06:28:39.467Z,0.00
2018-12-29T06:29:39.384Z,0.00
2018-12-29T06:30:39.395Z,0.00
2018-12-29T06:31:39.375Z,0.00
2018-12-29T06:32:39.325Z,0.00
2018-12-29T06:33:39.339Z,0.00
2018-12-29T06:34:39.332Z,0.00
2018-12-29T06:35:39.302Z,0.00
2018-12-29T06:36:39.284Z,0.00
2018-12-29T06:37:39.356Z,0.00
2018-12-29T06:38:39.272Z,0.00
2018-12-29T06:39:39.262Z,0.00
2018-12-29T06:40:39.272Z,0.00
2018-12-29T06:41:39.245Z,0.00
2018-12-29T06:42:39.225Z,0.00
2018-12-29T06:43:39.228Z,0.00
2018-12-29T06:44:39.229Z,0.00
2018-12-29T06:45:39.346Z,0.00
2018-12-29T06:46:39.185Z,0.00
2018-12-29T06:47:39.169Z,0.00
2018-12-29T06:48:39.170Z,0.00
2018-12-29T06:49:39.159Z,0.00
2018-12-29T06:50:39.147Z,0.00
2018-12-29T06:51:39.271Z,0.00
2018-12-29T06:52:39.124Z,0.00
2018-12-29T06:53:39.162Z,0.00
2018-12-29T06:54:39.119Z,0.00
2018-12-29T06:55:39.086Z,0.00
2018-12-29T06:56:39.116Z,0.00
2018-12-29T06:57:39.078Z,0.00
2018-12-29T06:58:39.120Z,0.00
2018-12-29T06:59:39.078Z,0.00
2018-12-29T07:00:39.049Z,0.00
2018-12-29T07:01:39.037Z,0.00
2018-12-29T07:02:39.035Z,0.00
2018-12-29T07:03:39.036Z,0.00
2018-12-29T07:04:38.993Z,0.00
2018-12-29T07:05:38.977Z,0.00
2018-12-29T07:06:38.978Z,0.00
2018-12-29T07:07:38.966Z,0.00
2018-12-29T07:08:38.977Z,0.00
2018-12-29T07:09:38.942Z,4.00
2018-12-29T07:10:38.939Z,0.00
2018-12-29T07:11:38.922Z,4.00
2018-12-29T07:12:38.911Z,4.00
2018-12-29T07:13:38.958Z,4.00
2018-12-29T07:14:38.913Z,0.00
2018-12-29T07:15:38.878Z,0.00
2018-12-29T07:16:42.171Z,4.00
2018-12-29T07:17:38.851Z,4.00
2018-12-29T07:18:38.851Z,4.00
2018-12-29T07:19:38.863Z,8.00
2018-12-29T07:20:38.883Z,12.00
2018-12-29T07:21:38.897Z,8.00
2018-12-29T07:22:38.812Z,8.00
2018-12-29T07:23:38.794Z,8.00
2018-12-29T07:24:38.796Z,8.00
2018-12-29T07:25:38.797Z,12.00
2018-12-29T07:26:38.760Z,20.00
2018-12-29T07:27:38.747Z,20.00
2018-12-29T07:28:38.760Z,20.00
2018-12-29T07:29:38.796Z,20.00
2018-12-29T07:30:38.728Z,24.00
2018-12-29T07:31:38.759Z,24.00
2018-12-29T07:32:38.701Z,24.00
2018-12-29T07:33:38.688Z,24.00
2018-12-29T07:34:38.684Z,24.00
2018-12-29T07:35:38.679Z,24.00
2018-12-29T07:36:38.688Z,28.00
2018-12-29T07:37:38.652Z,28.00
2018-12-29T07:38:38.654Z,32.00
2018-12-29T07:39:38.684Z,40.00
2018-12-29T07:40:38.616Z,48.00
2018-12-29T07:41:38.691Z,52.00
2018-12-29T07:42:38.617Z,60.00
2018-12-29T07:43:38.587Z,64.00
2018-12-29T07:44:38.583Z,72.00
2018-12-29T07:45:38.567Z,92.00
2018-12-29T07:46:38.558Z,84.00
2018-12-29T07:47:38.548Z,104.00
2018-12-29T07:48:38.555Z,108.00
2018-12-29T07:49:38.527Z,84.00
2018-12-29T07:50:38.513Z,84.00
2018-12-29T07:51:38.505Z,108.00
2018-12-29T07:52:38.490Z,72.00
2018-12-29T07:53:38.499Z,92.00
2018-12-29T07:54:38.463Z,96.00
2018-12-29T07:55:38.456Z,104.00
2018-12-29T07:56:38.445Z,136.00
2018-12-29T07:57:38.447Z,104.00
2018-12-29T07:58:38.429Z,100.00
2018-12-29T07:59:38.490Z,100.00
2018-12-29T08:00:38.408Z,96.00
2018-12-29T08:01:38.393Z,116.00
2018-12-29T08:02:39.207Z,116.00
2018-12-29T08:03:38.371Z,124.00
2018-12-29T08:04:38.371Z,136.00
2018-12-29T08:05:38.372Z,172.00
2018-12-29T08:06:38.345Z,164.00
2018-12-29T08:07:38.333Z,152.00
2018-12-29T08:08:38.322Z,148.00
2018-12-29T08:09:38.349Z,132.00
2018-12-29T08:10:38.863Z,116.00
2018-12-29T08:11:38.290Z,112.00
2018-12-29T08:12:38.285Z,132.00
2018-12-29T08:13:38.275Z,136.00
2018-12-29T08:14:38.264Z,120.00
2018-12-29T08:15:38.241Z,156.00
2018-12-29T08:16:38.278Z,176.00
2018-12-29T08:17:38.226Z,164.00
2018-12-29T08:18:38.213Z,188.00
2018-12-29T08:19:38.216Z,168.00
2018-12-29T08:20:38.221Z,232.00
2018-12-29T08:21:38.181Z,236.00
2018-12-29T08:22:38.185Z,300.00
2018-12-29T08:23:38.178Z,320.00
2018-12-29T08:24:38.153Z,280.00
2018-12-29T08:25:38.139Z,276.00
2018-12-29T08:26:38.139Z,216.00
2018-12-29T08:27:38.141Z,228.00
2018-12-29T08:28:38.106Z,236.00
2018-12-29T08:29:38.099Z,236.00
2018-12-29T08:30:38.092Z,240.00
2018-12-29T08:31:38.078Z,188.00
2018-12-29T08:32:38.073Z,184.00
2018-12-29T08:33:38.087Z,240.00
2018-12-29T08:34:38.043Z,316.00
2018-12-29T08:35:38.030Z,248.00
2018-12-29T08:36:38.024Z,248.00
2018-12-29T08:37:38.018Z,240.00
2018-12-29T08:38:38.013Z,220.00
2018-12-29T08:39:38.009Z,192.00
2018-12-29T08:40:37.983Z,192.00
2018-12-29T08:41:37.965Z,196.00
2018-12-29T08:42:37.957Z,176.00
2018-12-29T08:43:37.964Z,188.00
2018-12-29T08:44:37.971Z,144.00
2018-12-29T08:45:37.935Z,160.00
2018-12-29T08:46:37.917Z,204.00
2018-12-29T08:47:37.906Z,192.00
2018-12-29T08:48:37.906Z,192.00
2018-12-29T08:49:37.907Z,156.00
2018-12-29T08:50:37.905Z,148.00
2018-12-29T08:51:37.862Z,148.00
2018-12-29T08:52:37.864Z,136.00
2018-12-29T08:53:37.845Z,160.00
2018-12-29T08:54:37.858Z,176.00
2018-12-29T08:55:37.821Z,160.00
2018-12-29T08:56:37.869Z,148.00
2018-12-29T08:57:37.810Z,140.00
2018-12-29T08:58:37.800Z,116.00
2018-12-29T08:59:37.786Z,152.00
2018-12-29T09:00:37.773Z,184.00
2018-12-29T09:01:37.767Z,152.00
2018-12-29T09:02:37.769Z,200.00
2018-12-29T09:03:37.746Z,168.00
2018-12-29T09:04:37.736Z,188.00
2018-12-29T09:05:37.719Z,224.00
2018-12-29T09:06:37.727Z,292.00
2018-12-29T09:07:37.725Z,240.00
2018-12-29T09:08:37.719Z,296.00
2018-12-29T09:09:37.680Z,276.00
2018-12-29T09:10:37.660Z,372.00
2018-12-29T09:11:37.656Z,356.00
2018-12-29T09:12:37.641Z,412.00
2018-12-29T09:13:37.662Z,464.00
2018-12-29T09:14:37.639Z,488.00
2018-12-29T09:15:39.187Z,400.00
2018-12-29T09:16:37.602Z,396.00
2018-12-29T09:17:37.599Z,388.00
2018-12-29T09:18:37.586Z,472.00
2018-12-29T09:19:37.594Z,404.00
2018-12-29T09:20:37.558Z,472.00
2018-12-29T09:21:37.549Z,516.00
2018-12-29T09:22:37.538Z,656.00
2018-12-29T09:23:37.536Z,592.00
2018-12-29T09:24:37.545Z,500.00
2018-12-29T09:25:37.521Z,556.00
2018-12-29T09:26:37.502Z,748.00
2018-12-29T09:27:37.481Z,600.00
2018-12-29T09:28:37.499Z,604.00
2018-12-29T09:29:37.491Z,716.00
2018-12-29T09:30:37.526Z,696.00
2018-12-29T09:31:37.448Z,788.00
2018-12-29T09:32:37.439Z,756.00
2018-12-29T09:33:37.436Z,756.00
2018-12-29T09:34:37.426Z,812.00
2018-12-29T09:35:37.401Z,704.00
2018-12-29T09:36:37.498Z,768.00
2018-12-29T09:37:37.421Z,920.00
2018-12-29T09:38:44.870Z,1376.00
2018-12-29T09:39:37.392Z,1188.00
2018-12-29T09:40:37.354Z,996.00
2018-12-29T09:41:37.357Z,860.00
2018-12-29T09:42:37.406Z,1112.00
2018-12-29T09:43:37.380Z,1196.00
2018-12-29T09:44:37.367Z,1176.00
2018-12-29T09:45:37.348Z,1380.00
2018-12-29T09:46:37.307Z,1224.00
2018-12-29T09:47:37.307Z,1388.00
2018-12-29T09:48:37.303Z,1264.00
2018-12-29T09:49:37.270Z,1416.00
2018-12-29T09:50:37.252Z,1676.00
2018-12-29T09:51:37.293Z,1676.00
2018-12-29T09:52:37.241Z,1596.00
2018-12-29T09:53:37.227Z,1520.00
2018-12-29T09:54:37.230Z,1868.00
2018-12-29T09:55:37.196Z,1740.00
2018-12-29T09:56:37.181Z,1556.00
2018-12-29T09:57:37.164Z,1552.00
2018-12-29T09:58:37.162Z,1492.00
2018-12-29T09:59:37.208Z,1240.00
2018-12-29T10:00:37.222Z,868.00
2018-12-29T10:01:37.160Z,1340.00
2018-12-29T10:02:37.114Z,1332.00
2018-12-29T10:03:37.107Z,1108.00
2018-12-29T10:04:37.097Z,1092.00
2018-12-29T10:05:37.084Z,1236.00
2018-12-29T10:06:37.152Z,1124.00
2018-12-29T10:07:37.067Z,1228.00
2018-12-29T10:08:37.054Z,1164.00
2018-12-29T10:09:37.041Z,1208.00
2018-12-29T10:10:37.041Z,944.00
2018-12-29T10:11:37.047Z,1004.00
2018-12-29T10:12:37.041Z,996.00
2018-12-29T10:13:37.010Z,972.00
2018-12-29T10:14:36.996Z,1084.00
2018-12-29T10:15:37.003Z,1068.00
2018-12-29T10:16:36.972Z,1112.00
2018-12-29T10:17:36.963Z,1036.00
2018-12-29T10:18:36.995Z,1164.00
2018-12-29T10:19:36.942Z,1304.00
2018-12-29T10:20:36.964Z,1048.00
2018-12-29T10:21:36.936Z,972.00
2018-12-29T10:22:36.916Z,1244.00
2018-12-29T10:23:36.946Z,1088.00
2018-12-29T10:24:37.048Z,992.00
2018-12-29T10:25:36.879Z,1276.00
2018-12-29T10:26:36.863Z,1348.00
2018-12-29T10:27:36.858Z,1364.00
2018-12-29T10:28:36.852Z,1188.00
2018-12-29T10:29:36.834Z,900.00
2018-12-29T10:30:36.873Z,852.00
2018-12-29T10:31:36.821Z,1048.00
2018-12-29T10:32:36.808Z,1084.00
2018-12-29T10:33:36.804Z,1112.00
2018-12-29T10:34:36.836Z,1312.00
2018-12-29T10:35:36.772Z,1760.00
2018-12-29T10:36:36.801Z,1608.00
2018-12-29T10:37:36.752Z,1296.00
2018-12-29T10:38:36.750Z,1748.00
2018-12-29T10:39:36.737Z,1404.00
2018-12-29T10:40:36.741Z,1668.00
2018-12-29T10:41:36.708Z,1272.00
2018-12-29T10:42:36.728Z,1020.00
2018-12-29T10:43:36.690Z,684.00
2018-12-29T10:44:36.680Z,844.00
2018-12-29T10:45:36.687Z,940.00
2018-12-29T10:46:36.659Z,1216.00
2018-12-29T10:47:36.661Z,1496.00
2018-12-29T10:48:36.665Z,1120.00
2018-12-29T10:49:36.625Z,924.00
2018-12-29T10:50:36.614Z,1172.00
2018-12-29T10:51:36.622Z,1372.00
2018-12-29T10:52:36.601Z,1224.00
2018-12-29T10:53:36.585Z,1556.00
2018-12-29T10:54:36.600Z,1344.00
2018-12-29T10:55:36.564Z,988.00
2018-12-29T10:56:36.554Z,1192.00
2018-12-29T10:57:36.547Z,1112.00
2018-12-29T10:58:36.654Z,1112.00
2018-12-29T10:59:36.561Z,1292.00
2018-12-29T11:00:36.554Z,1480.00
2018-12-29T11:01:36.501Z,1144.00
2018-12-29T11:02:36.488Z,1452.00
2018-12-29T11:03:36.483Z,1228.00
2018-12-29T11:04:36.468Z,1280.00
2018-12-29T11:05:36.470Z,1016.00
2018-12-29T11:06:36.480Z,996.00
2018-12-29T11:07:36.443Z,1196.00
2018-12-29T11:08:36.431Z,1376.00
2018-12-29T11:09:36.417Z,1288.00
2018-12-29T11:10:36.405Z,1244.00
2018-12-29T11:11:36.435Z,1188.00
2018-12-29T11:12:36.416Z,1412.00
2018-12-29T11:13:36.392Z,1512.00
2018-12-29T11:14:36.370Z,1276.00
2018-12-29T11:15:36.357Z,1616.00
2018-12-29T11:16:36.347Z,1748.00
2018-12-29T11:17:42.113Z,1692.00
2018-12-29T11:18:37.373Z,1488.00
2018-12-29T11:19:36.317Z,1556.00
2018-12-29T11:20:36.306Z,1640.00
2018-12-29T11:21:36.294Z,1432.00
2018-12-29T11:22:36.278Z,1560.00
2018-12-29T11:23:36.286Z,1816.00
2018-12-29T11:24:37.382Z,1292.00
2018-12-29T11:25:36.268Z,1152.00
2018-12-29T11:26:36.338Z,1032.00
2018-12-29T11:27:36.316Z,948.00
2018-12-29T11:28:36.219Z,948.00
2018-12-29T11:29:36.212Z,852.00
2018-12-29T11:30:36.307Z,828.00
2018-12-29T11:31:36.191Z,820.00
2018-12-29T11:32:36.281Z,644.00
2018-12-29T11:33:36.222Z,736.00
2018-12-29T11:34:36.174Z,604.00
2018-12-29T11:35:36.149Z,624.00
2018-12-29T11:36:36.193Z,788.00
2018-12-29T11:37:36.117Z,652.00
2018-12-29T11:38:36.144Z,632.00
2018-12-29T11:39:36.106Z,592.00
2018-12-29T11:40:36.117Z,652.00
2018-12-29T11:41:36.101Z,532.00
2018-12-29T11:42:36.105Z,532.00
2018-12-29T11:43:36.075Z,804.00
2018-12-29T11:44:36.068Z,756.00
2018-12-29T11:45:36.051Z,632.00
2018-12-29T11:46:36.031Z,756.00
2018-12-29T11:47:36.050Z,1308.00
2018-12-29T11:48:36.049Z,784.00
2018-12-29T11:49:36.011Z,860.00
2018-12-29T11:50:35.986Z,948.00
2018-12-29T11:51:35.993Z,740.00
2018-12-29T11:52:35.991Z,800.00
2018-12-29T11:53:35.983Z,704.00
2018-12-29T11:54:35.989Z,644.00
2018-12-29T11:55:35.951Z,708.00
2018-12-29T11:56:35.945Z,620.00
2018-12-29T11:57:35.935Z,612.00
2018-12-29T11:58:35.903Z,564.00
2018-12-29T11:59:35.925Z,832.00
2018-12-29T12:00:35.943Z,812.00
2018-12-29T12:01:35.872Z,872.00
2018-12-29T12:02:35.859Z,700.00
2018-12-29T12:03:35.883Z,796.00
2018-12-29T12:04:35.886Z,716.00
2018-12-29T12:05:35.834Z,688.00
2018-12-29T12:06:35.866Z,676.00
2018-12-29T12:07:35.830Z,568.00
2018-12-29T12:08:35.834Z,588.00
2018-12-29T12:09:35.796Z,844.00
2018-12-29T12:10:35.848Z,664.00
2018-12-29T12:11:35.800Z,828.00
2018-12-29T12:12:35.796Z,700.00
2018-12-29T12:13:35.754Z,812.00
2018-12-29T12:14:35.773Z,732.00
2018-12-29T12:15:35.734Z,628.00
2018-12-29T12:16:35.722Z,612.00
2018-12-29T12:17:35.727Z,560.00
2018-12-29T12:18:35.776Z,556.00
2018-12-29T12:19:35.702Z,712.00
2018-12-29T12:20:35.671Z,772.00
2018-12-29T12:21:35.685Z,984.00
2018-12-29T12:22:35.668Z,724.00
2018-12-29T12:23:35.718Z,960.00
2018-12-29T12:24:35.672Z,884.00
2018-12-29T12:25:35.623Z,876.00
2018-12-29T12:26:35.670Z,908.00
2018-12-29T12:27:35.616Z,832.00
2018-12-29T12:28:35.614Z,944.00
2018-12-29T12:29:35.619Z,1028.00
2018-12-29T12:30:35.648Z,1028.00
2018-12-29T12:31:35.574Z,960.00
2018-12-29T12:32:35.556Z,1220.00
2018-12-29T12:33:35.576Z,1168.00
2018-12-29T12:34:35.562Z,1144.00
2018-12-29T12:35:35.516Z,1076.00
2018-12-29T12:36:35.544Z,1008.00
2018-12-29T12:37:35.518Z,1336.00
2018-12-29T12:38:35.515Z,960.00
2018-12-29T12:39:35.491Z,1024.00
2018-12-29T12:40:35.530Z,1236.00
2018-12-29T12:41:35.462Z,1048.00
2018-12-29T12:42:35.494Z,1228.00
2018-12-29T12:43:35.438Z,1260.00
2018-12-29T12:44:35.423Z,1088.00
2018-12-29T12:45:35.424Z,1080.00
2018-12-29T12:46:35.398Z,1184.00
2018-12-29T12:47:35.403Z,904.00
2018-12-29T12:48:35.416Z,988.00
2018-12-29T12:49:35.409Z,1004.00
2018-12-29T12:50:35.361Z,976.00
2018-12-29T12:51:35.351Z,720.00
2018-12-29T12:52:35.343Z,988.00
2018-12-29T12:53:35.327Z,1092.00